Time;durP1;ratioP1;P1;durP2;ratioP2;P2;SDS_P1;SDS_P2;PMS_P1;PMS_P2;Temp;Humidity;BMP_temperature;BMP_pressure;BME280_temperature;BME280_humidity;BME280_pressure;Samples;Min_cycle;Max_cycle;Signal;HPM_P1;HPM_P2
2021/01/26 00:00:23;;;;;;;39.93;14.90;;;-0.70;99.90;;;;;;4381192;28;660506;-50
2021/01/26 00:03:10;;;;;;;40.60;14.70;;;-0.80;99.90;;;;;;4345470;28;661301;-50
2021/01/26 00:05:57;;;;;;;37.10;14.73;;;-0.80;99.90;;;;;;4374190;28;661742;-51
2021/01/26 00:08:44;;;;;;;35.73;13.20;;;-0.90;99.90;;;;;;4370677;28;660657;-53
2021/01/26 00:11:32;;;;;;;27.20;9.27;;;-0.90;99.90;;;;;;4384517;28;660741;-51
2021/01/26 00:14:19;;;;;;;30.57;11.93;;;-0.90;99.90;;;;;;4372552;28;660740;-57
2021/01/26 00:17:06;;;;;;;38.55;14.07;;;-1.00;99.90;;;;;;4368798;28;662128;-50
2021/01/26 00:19:53;;;;;;;31.17;12.10;;;-0.90;99.90;;;;;;4388907;28;660706;-51
2021/01/26 00:22:40;;;;;;;37.27;13.70;;;-0.80;99.90;;;;;;4362968;28;660991;-52
2021/01/26 00:25:31;;;;;;;11.77;5.50;;;-0.90;99.90;;;;;;4370274;28;661281;-52
2021/01/26 00:28:19;;;;;;;24.67;9.87;;;-0.80;99.90;;;;;;4351670;28;659534;-50
2021/01/26 00:31:06;;;;;;;30.30;10.90;;;-0.80;99.90;;;;;;4350049;28;661201;-49
2021/01/26 00:33:53;;;;;;;28.90;12.20;;;-1.00;99.90;;;;;;4359411;28;660619;-49
2021/01/26 00:36:40;;;;;;;33.30;12.43;;;-1.00;99.90;;;;;;4357626;28;660836;-50
2021/01/26 00:39:27;;;;;;;33.97;13.43;;;-1.00;99.90;;;;;;4369253;28;661768;-52
2021/01/26 00:42:14;;;;;;;35.27;13.60;;;-1.00;99.90;;;;;;4343234;28;660800;-54
2021/01/26 00:45:03;;;;;;;16.27;4.57;;;-1.10;99.90;;;;;;4360497;28;662801;-50
2021/01/26 00:47:50;;;;;;;32.67;12.43;;;-0.90;99.90;;;;;;4354256;28;659761;-51
2021/01/26 00:50:37;;;;;;;34.90;12.30;;;-1.00;99.90;;;;;;4377435;28;662126;-49
2021/01/26 00:53:24;;;;;;;39.57;14.27;;;-1.00;99.90;;;;;;4344112;28;660795;-54
2021/01/26 00:56:11;;;;;;;30.67;11.07;;;-1.10;99.90;;;;;;4365702;28;662493;-49
2021/01/26 00:58:58;;;;;;;33.63;12.60;;;-1.10;99.90;;;;;;4368641;28;660411;-53
2021/01/26 01:01:46;;;;;;;21.40;8.07;;;-1.00;99.90;;;;;;4344862;28;662114;-52
2021/01/26 01:04:33;;;;;;;35.37;13.83;;;-1.00;99.90;;;;;;4375125;28;659635;-51
2021/01/26 01:07:20;;;;;;;34.33;12.33;;;-0.80;99.90;;;;;;4349782;28;660923;-50
2021/01/26 01:10:09;;;;;;;32.23;12.80;;;-1.00;99.90;;;;;;4364370;28;661818;-52
2021/01/26 01:12:56;;;;;;;26.90;11.57;;;-1.00;99.90;;;;;;4351987;28;661403;-51
2021/01/26 01:15:43;;;;;;;30.35;7.70;;;-1.10;99.90;;;;;;4368642;28;661359;-51
2021/01/26 01:18:31;;;;;;;35.13;13.67;;;-1.00;99.90;;;;;;4354672;28;660000;-51
2021/01/26 01:21:18;;;;;;;36.10;13.68;;;-0.70;99.90;;;;;;4369220;28;661505;-50
2021/01/26 01:24:06;;;;;;;37.70;14.18;;;-0.90;99.90;;;;;;4349452;28;661365;-50
2021/01/26 01:26:53;;;;;;;39.58;13.45;;;-1.00;99.90;;;;;;4371756;28;660761;-52
2021/01/26 01:29:40;;;;;;;35.50;13.97;;;-1.00;99.90;;;;;;4325853;28;662270;-53
2021/01/26 01:32:27;;;;;;;38.80;14.10;;;-0.90;99.90;;;;;;4354913;28;661486;-52
2021/01/26 01:35:15;;;;;;;39.70;16.23;;;-0.80;99.90;;;;;;4343004;28;660559;-54
2021/01/26 01:38:02;;;;;;;31.00;14.48;;;-0.80;99.90;;;;;;4366559;28;661279;-49
2021/01/26 01:40:51;;;;;;;32.50;12.50;;;-0.80;99.90;;;;;;4340725;28;660729;-52
2021/01/26 01:43:38;;;;;;;41.33;15.53;;;-0.80;99.90;;;;;;4368587;28;660848;-49
2021/01/26 01:46:26;;;;;;;43.87;15.67;;;-0.80;99.90;;;;;;4345811;28;660721;-52
2021/01/26 01:49:15;;;;;;;22.13;8.33;;;-0.80;99.90;;;;;;4378482;28;660799;-51
2021/01/26 01:52:03;;;;;;;43.13;14.63;;;-0.90;99.90;;;;;;4336924;28;660472;-49
2021/01/26 01:54:52;;;;;;;29.05;9.70;;;-0.90;99.90;;;;;;4354463;28;660679;-51
2021/01/26 01:57:41;;;;;;;25.30;10.53;;;-0.80;99.90;;;;;;4342349;28;659724;-52
2021/01/26 02:00:27;;;;;;;32.83;14.23;;;-0.90;99.90;;;;;;4355918;28;661431;-52
2021/01/26 02:03:17;;;;;;;31.70;11.60;;;-0.70;99.90;;;;;;4345887;28;660926;-48
2021/01/26 02:06:05;;;;;;;38.53;14.30;;;-0.90;99.90;;;;;;4355457;28;660632;-51
2021/01/26 02:08:55;;;;;;;7.47;3.50;;;-0.90;99.90;;;;;;4370137;28;662026;-52
2021/01/26 02:11:43;;;;;;;35.77;14.43;;;-0.70;99.90;;;;;;4350348;28;658673;-50
2021/01/26 02:14:32;;;;;;;39.90;14.87;;;-0.70;99.90;;;;;;4353744;28;661351;-52
2021/01/26 02:17:26;;;;;;;26.33;9.80;;;-0.80;99.90;;;;;;4359713;28;660691;-56
2021/01/26 02:20:58;;;;;;;31.30;11.83;;;-0.80;99.90;;;;;;4330887;28;659690;-50
2021/01/26 02:24:33;;;;;;;32.07;11.60;;;-0.80;99.90;;;;;;4303561;28;661639;-49
2021/01/26 02:27:48;;;;;;;43.97;14.77;;;-0.80;99.90;;;;;;4329012;28;661275;-49
2021/01/26 02:30:46;;;;;;;37.30;13.63;;;-0.90;99.90;;;;;;4334298;28;661315;-51
2021/01/26 02:34:06;;;;;;;38.60;15.67;;;-1.00;99.90;;;;;;4324530;28;662228;-52
2021/01/26 02:37:24;;;;;;;38.83;13.53;;;-0.80;99.90;;;;;;4323811;28;660919;-51
2021/01/26 02:40:14;;;;;;;48.70;18.10;;;-0.80;99.90;;;;;;4349263;28;660823;-49
2021/01/26 02:43:08;;;;;;;29.93;10.70;;;-1.10;99.90;;;;;;4341189;28;661947;-47
2021/01/26 02:46:00;;;;;;;20.13;7.93;;;-0.80;99.90;;;;;;4320992;28;662374;-49
2021/01/26 02:48:56;;;;;;;46.40;17.10;;;-0.90;99.90;;;;;;4337806;28;660774;-50
2021/01/26 02:51:55;;;;;;;46.53;18.00;;;-1.00;99.90;;;;;;4337273;28;660815;-51
2021/01/26 02:54:47;;;;;;;42.47;13.97;;;-1.10;99.90;;;;;;4341552;28;661613;-50
2021/01/26 02:57:38;;;;;;;48.10;18.52;;;-1.00;99.90;;;;;;4343785;28;661732;-53
2021/01/26 03:00:25;;;;;;;40.10;15.00;;;-1.10;99.90;;;;;;4359912;28;662326;-51
2021/01/26 03:03:17;;;;;;;40.33;14.03;;;-1.20;99.90;;;;;;4360951;28;661530;-51
2021/01/26 03:06:06;;;;;;;48.33;19.23;;;-1.20;99.90;;;;;;4329929;28;661176;-53
2021/01/26 03:09:08;;;;;;;49.63;18.57;;;-1.20;99.90;;;;;;4365502;28;661078;-51
2021/01/26 03:11:57;;;;;;;44.08;17.33;;;-1.20;99.90;;;;;;4343260;28;660894;-49
2021/01/26 03:14:48;;;;;;;24.00;8.60;;;-1.20;99.90;;;;;;4338703;28;661543;-53
2021/01/26 03:17:35;;;;;;;48.83;18.47;;;-1.00;99.90;;;;;;4336032;28;659849;-49
2021/01/26 03:20:25;;;;;;;46.27;17.90;;;-1.10;99.90;;;;;;4359697;28;661070;-51
2021/01/26 03:23:14;;;;;;;47.83;18.30;;;-1.10;99.90;;;;;;4335107;28;662996;-48
2021/01/26 03:26:01;;;;;;;46.40;17.70;;;-1.20;99.90;;;;;;4338756;28;662435;-50
2021/01/26 03:28:49;;;;;;;39.60;14.63;;;-1.20;99.90;;;;;;4369570;28;662193;-49
2021/01/26 03:31:39;;;;;;;44.40;17.83;;;-1.20;99.90;;;;;;4343317;28;662427;-52
2021/01/26 03:34:26;;;;;;;44.43;16.97;;;-1.20;99.90;;;;;;4357857;28;661772;-53
2021/01/26 03:37:13;;;;;;;41.63;14.80;;;-1.30;99.90;;;;;;4372695;28;660692;-53
2021/01/26 03:40:00;;;;;;;46.10;17.47;;;-1.20;99.90;;;;;;4345918;28;661952;-54
2021/01/26 03:42:47;;;;;;;21.33;8.30;;;-1.20;99.90;;;;;;4363440;28;662518;-51
2021/01/26 03:45:34;;;;;;;44.67;17.55;;;-1.20;99.90;;;;;;4353202;28;659559;-57
2021/01/26 03:48:33;;;;;;;49.60;19.13;;;-1.10;99.90;;;;;;4375637;28;661892;-48
2021/01/26 03:51:25;;;;;;;42.40;14.73;;;-1.20;99.90;;;;;;4325640;28;661518;-51
2021/01/26 03:54:18;;;;;;;44.93;17.90;;;-1.20;99.90;;;;;;4340786;28;661342;-51
2021/01/26 03:57:18;;;;;;;35.73;14.63;;;-1.20;99.90;;;;;;4350097;28;660618;-50
2021/01/26 04:00:20;;;;;;;37.83;8.47;;;-1.20;99.90;;;;;;4323627;28;661428;-49
2021/01/26 04:03:25;;;;;;;47.17;18.33;;;-1.20;99.90;;;;;;4345271;28;660184;-50
2021/01/26 04:06:16;;;;;;;47.07;18.40;;;-1.20;99.90;;;;;;4347379;28;661709;-53
2021/01/26 04:09:05;;;;;;;30.83;10.83;;;-1.30;99.90;;;;;;4344758;28;660642;-51
2021/01/26 04:11:54;;;;;;;52.73;18.73;;;-1.10;99.90;;;;;;4347485;28;662279;-53
2021/01/26 04:14:46;;;;;;;53.53;18.93;;;-1.20;99.90;;;;;;4344763;28;662657;-51
2021/01/26 04:17:34;;;;;;;53.00;18.57;;;-1.20;99.90;;;;;;4347682;28;660948;-51
2021/01/26 04:20:23;;;;;;;47.90;19.63;;;-1.20;99.90;;;;;;4351931;28;662195;-50
2021/01/26 04:23:12;;;;;;;34.07;12.87;;;-1.30;99.90;;;;;;4349944;28;661038;-51
2021/01/26 04:26:04;;;;;;;47.07;17.50;;;-1.30;99.90;;;;;;4352894;28;660542;-55
2021/01/26 04:28:51;;;;;;;46.27;17.53;;;-1.20;99.90;;;;;;4342137;28;661721;-52
2021/01/26 04:31:38;;;;;;;49.83;17.55;;;-0.90;99.90;;;;;;4360336;28;662042;-52
2021/01/26 04:34:25;;;;;;;46.10;18.63;;;-1.10;99.90;;;;;;4341791;28;661405;-52
2021/01/26 04:37:12;;;;;;;37.50;15.23;;;-1.00;99.90;;;;;;4370672;28;662676;-52
2021/01/26 04:40:00;;;;;;;42.67;16.57;;;-1.20;99.90;;;;;;4347488;28;660762;-56
2021/01/26 04:42:47;;;;;;;44.43;16.70;;;-1.20;99.90;;;;;;4366619;28;662679;-55
2021/01/26 04:45:39;;;;;;;45.63;15.30;;;-1.20;99.90;;;;;;4345583;28;661757;-56
2021/01/26 04:48:27;;;;;;;27.63;11.40;;;-1.20;99.90;;;;;;4344903;28;661937;-53
2021/01/26 04:51:18;;;;;;;35.87;13.90;;;-1.10;99.90;;;;;;4337440;28;660958;-55
2021/01/26 04:54:14;;;;;;;35.50;11.30;;;-1.20;99.90;;;;;;4346719;28;661076;-53
2021/01/26 04:57:09;;;;;;;39.83;14.67;;;-1.20;99.90;;;;;;4329373;28;662520;-54
2021/01/26 05:00:05;;;;;;;39.30;15.57;;;-1.10;99.90;;;;;;4318605;28;662319;-54
2021/01/26 05:03:20;;;;;;;35.00;13.87;;;-1.20;99.90;;;;;;4357822;28;660790;-50
2021/01/26 05:06:09;;;;;;;38.27;15.00;;;-1.10;99.90;;;;;;4336634;28;661599;-52
2021/01/26 05:08:56;;;;;;;45.30;17.57;;;-1.00;99.90;;;;;;4340793;28;662215;-52
2021/01/26 05:11:44;;;;;;;22.25;10.35;;;-1.00;99.90;;;;;;4354956;28;660382;-52
2021/01/26 05:14:34;;;;;;;34.83;15.00;;;-0.90;99.90;;;;;;4332315;28;661388;-52
2021/01/26 05:17:22;;;;;;;39.43;14.57;;;-0.90;99.90;;;;;;4335391;28;661858;-51
2021/01/26 05:20:13;;;;;;;37.37;14.23;;;-1.00;99.90;;;;;;4347044;28;660736;-56
2021/01/26 05:23:04;;;;;;;32.87;14.80;;;-1.10;99.90;;;;;;4349236;28;661469;-49
2021/01/26 05:25:51;;;;;;;24.77;8.90;;;-1.10;99.90;;;;;;4333931;28;662074;-50
2021/01/26 05:28:38;;;;;;;33.67;13.73;;;-1.10;99.90;;;;;;4354266;28;659302;-50
2021/01/26 05:31:28;;;;;;;44.20;15.07;;;-1.00;99.90;;;;;;4363047;28;660773;-48
2021/01/26 05:34:16;;;;;;;26.37;6.23;;;-1.10;99.90;;;;;;4362453;28;660721;-50
2021/01/26 05:37:05;;;;;;;32.53;12.40;;;-1.20;99.90;;;;;;4376050;28;660420;-49
2021/01/26 05:39:54;;;;;;;39.23;15.27;;;-1.30;99.90;;;;;;4337261;28;662143;-50
2021/01/26 05:42:41;;;;;;;38.60;15.17;;;-1.40;99.90;;;;;;4350093;28;662792;-50
2021/01/26 05:45:29;;;;;;;32.07;14.97;;;-1.40;99.90;;;;;;4345723;28;661399;-52
2021/01/26 05:48:19;;;;;;;38.33;14.57;;;-1.40;99.90;;;;;;4338924;28;662621;-52
2021/01/26 05:51:17;;;;;;;31.53;12.40;;;-1.40;99.90;;;;;;4354102;28;661898;-49
2021/01/26 05:54:06;;;;;;;21.90;7.43;;;-1.30;99.90;;;;;;4332095;28;660534;-54
2021/01/26 05:56:53;;;;;;;33.40;13.60;;;-1.20;99.90;;;;;;4351461;28;660922;-52
2021/01/26 05:59:40;;;;;;;33.97;13.60;;;-1.20;99.90;;;;;;4354893;28;660786;-54
2021/01/26 06:02:27;;;;;;;27.60;13.00;;;-1.10;99.90;;;;;;4362936;28;662662;-50
2021/01/26 06:05:18;;;;;;;41.77;14.17;;;-1.00;99.90;;;;;;4346108;28;660632;-55
2021/01/26 06:08:07;;;;;;;48.37;17.30;;;-1.20;99.90;;;;;;4331010;28;660811;-50
2021/01/26 06:10:54;;;;;;;31.10;11.60;;;-1.30;99.90;;;;;;4344688;28;660966;-52
2021/01/26 06:13:41;;;;;;;43.90;16.77;;;-1.20;99.90;;;;;;4345032;28;661974;-51
2021/01/26 06:16:28;;;;;;;42.03;16.57;;;-1.00;99.90;;;;;;4368304;28;660827;-51
2021/01/26 06:19:16;;;;;;;46.40;17.53;;;-1.30;99.90;;;;;;4358251;28;660564;-52
2021/01/26 06:22:03;;;;;;;39.50;14.50;;;-1.30;99.90;;;;;;4364720;28;661279;-50
2021/01/26 06:24:51;;;;;;;42.80;16.20;;;-1.20;99.90;;;;;;4359462;28;661646;-51
2021/01/26 06:28:02;;;;;;;40.37;15.03;;;-1.20;99.90;;;;;;4370332;28;662159;-52
2021/01/26 06:30:53;;;;;;;48.37;17.53;;;-1.30;99.90;;;;;;4304415;28;660394;-54
2021/01/26 06:34:05;;;;;;;47.97;18.70;;;-1.10;99.90;;;;;;4335210;28;660798;-51
2021/01/26 06:37:11;;;;;;;42.20;16.43;;;-1.10;99.90;;;;;;4331475;28;661609;-49
2021/01/26 06:40:14;;;;;;;27.70;10.50;;;-1.20;99.90;;;;;;4333207;28;660955;-55
2021/01/26 06:43:04;;;;;;;37.13;13.00;;;-1.00;99.90;;;;;;4309958;28;660706;-48
2021/01/26 06:45:56;;;;;;;40.80;14.27;;;-1.20;99.90;;;;;;4327738;28;660737;-59
2021/01/26 06:48:58;;;;;;;35.80;15.23;;;-1.10;99.90;;;;;;4323731;28;660580;-58
2021/01/26 06:52:06;;;;;;;41.83;15.47;;;-1.10;99.90;;;;;;4308231;28;660957;-60
2021/01/26 06:55:18;;;;;;;39.03;15.37;;;-1.20;99.90;;;;;;4327668;28;660936;-60
2021/01/26 06:58:32;;;;;;;48.07;18.27;;;-1.20;99.90;;;;;;4301277;28;661563;-60
2021/01/26 07:01:55;;;;;;;51.70;18.83;;;-1.10;99.90;;;;;;4306294;28;661766;-61
2021/01/26 07:05:21;;;;;;;36.90;14.50;;;-1.20;99.90;;;;;;4332948;28;663105;-59
2021/01/26 07:08:38;;;;;;;20.67;8.83;;;-0.90;99.90;;;;;;4332554;28;660935;-59
2021/01/26 07:11:52;;;;;;;38.27;15.40;;;-0.90;99.90;;;;;;4270481;29;660853;-59
2021/01/26 07:14:57;;;;;;;56.57;18.07;;;-1.00;99.90;;;;;;4241507;29;661435;-60
2021/01/26 07:18:09;;;;;;;48.60;18.70;;;-1.00;99.90;;;;;;4229956;29;660656;-61
2021/01/26 07:21:02;;;;;;;37.00;10.57;;;-1.00;99.90;;;;;;4217817;29;662428;-60
2021/01/26 07:24:06;;;;;;;50.00;19.53;;;-0.80;99.90;;;;;;4221765;29;660690;-61
2021/01/26 07:27:18;;;;;;;48.87;19.07;;;-1.00;99.90;;;;;;4237670;29;660682;-59
2021/01/26 07:30:10;;;;;;;16.00;6.40;;;-0.90;99.90;;;;;;4231338;29;662034;-59
2021/01/26 07:33:04;;;;;;;55.40;19.80;;;-0.80;99.90;;;;;;4255167;29;661492;-59
2021/01/26 07:35:56;;;;;;;58.13;21.47;;;-0.80;99.90;;;;;;4231697;29;661689;-60
2021/01/26 07:38:44;;;;;;;12.53;5.70;;;-0.90;99.90;;;;;;4240178;29;661711;-59
2021/01/26 07:41:33;;;;;;;48.63;21.90;;;-0.70;99.90;;;;;;4270455;29;660343;-59
2021/01/26 07:44:24;;;;;;;56.77;21.57;;;-0.60;99.90;;;;;;4254915;29;660891;-59
2021/01/26 07:47:15;;;;;;;49.50;19.13;;;-0.60;99.90;;;;;;4250456;29;662598;-60
2021/01/26 07:50:06;;;;;;;51.63;20.93;;;-0.70;99.90;;;;;;4265602;29;662469;-60
2021/01/26 07:52:55;;;;;;;49.72;18.70;;;-0.60;99.90;;;;;;4264520;29;661322;-60
2021/01/26 07:55:46;;;;;;;48.17;19.57;;;-0.40;99.90;;;;;;4317579;28;661254;-59
2021/01/26 07:58:33;;;;;;;42.57;17.10;;;-0.50;99.90;;;;;;4333791;28;661278;-60
2021/01/26 08:01:25;;;;;;;45.33;16.93;;;-0.40;99.90;;;;;;4338996;28;660833;-61
2021/01/26 08:04:12;;;;;;;41.10;13.07;;;-0.20;99.90;;;;;;4332536;28;661742;-60
2021/01/26 08:06:59;;;;;;;38.87;14.40;;;-0.20;99.90;;;;;;4344723;28;660648;-62
2021/01/26 08:09:47;;;;;;;29.03;12.53;;;-0.20;99.90;;;;;;4355438;28;662151;-61
2021/01/26 08:12:44;;;;;;;44.90;16.53;;;-0.20;99.90;;;;;;4339332;28;660862;-61
2021/01/26 08:15:32;;;;;;;31.63;12.70;;;-0.20;99.90;;;;;;4309520;28;661158;-59
2021/01/26 08:18:24;;;;;;;30.77;11.57;;;-0.20;99.90;;;;;;4358082;28;660717;-61
2021/01/26 08:21:31;;;;;;;9.07;3.53;;;0.00;99.90;;;;;;4327063;28;662598;-60
2021/01/26 08:24:27;;;;;;;31.15;12.68;;;0.00;99.90;;;;;;4334863;28;658116;-60
2021/01/26 08:27:57;;;;;;;34.53;14.17;;;-0.10;99.90;;;;;;4314378;28;660025;-60
2021/01/26 08:30:57;;;;;;;33.07;11.73;;;-0.20;99.90;;;;;;4318887;28;660791;-60
2021/01/26 08:33:45;;;;;;;35.50;13.00;;;0.00;99.90;;;;;;4320641;28;660875;-61
2021/01/26 08:36:37;;;;;;;41.43;15.47;;;0.00;99.90;;;;;;4339277;28;661172;-60
2021/01/26 08:39:40;;;;;;;39.67;15.27;;;0.10;99.90;;;;;;4316849;28;659904;-61
2021/01/26 08:42:53;;;;;;;46.13;18.57;;;-0.10;99.90;;;;;;4317463;28;660170;-61
2021/01/26 08:45:56;;;;;;;35.27;13.07;;;0.00;99.90;;;;;;4304320;28;662605;-60
2021/01/26 08:48:50;;;;;;;40.63;14.90;;;-0.10;99.90;;;;;;4329192;28;660578;-59
2021/01/26 08:51:41;;;;;;;23.83;9.20;;;-0.20;99.90;;;;;;4328270;28;661566;-59
2021/01/26 08:54:41;;;;;;;36.67;12.57;;;0.00;99.90;;;;;;4325315;28;660416;-60
2021/01/26 08:57:42;;;;;;;29.27;10.47;;;0.20;99.90;;;;;;4341125;28;660350;-59
2021/01/26 09:00:38;;;;;;;40.00;15.50;;;0.20;99.90;;;;;;4322822;28;660389;-60
2021/01/26 09:03:43;;;;;;;40.30;16.37;;;0.10;99.90;;;;;;4302701;28;660349;-60
2021/01/26 09:06:55;;;;;;;36.87;13.90;;;0.00;99.90;;;;;;4308643;28;661754;-60
2021/01/26 09:09:52;;;;;;;29.13;10.57;;;0.00;99.90;;;;;;4292172;29;661015;-61
2021/01/26 09:12:39;;;;;;;43.83;17.25;;;0.00;99.90;;;;;;4262445;29;659964;-61
2021/01/26 09:15:26;;;;;;;28.58;11.88;;;-0.10;99.90;;;;;;4322897;29;660818;-59
2021/01/26 09:18:15;;;;;;;37.47;13.90;;;-0.10;99.90;;;;;;4308229;28;660617;-59
2021/01/26 09:21:04;;;;;;;30.00;12.73;;;0.00;99.90;;;;;;4268935;29;663764;-60
2021/01/26 09:23:55;;;;;;;24.97;10.97;;;0.30;99.90;;;;;;4292670;29;661562;-59
2021/01/26 09:26:42;;;;;;;28.03;11.10;;;0.60;99.90;;;;;;4293278;29;660481;-59
2021/01/26 09:29:29;;;;;;;25.10;9.13;;;0.70;99.90;;;;;;4311244;28;659563;-61
2021/01/26 09:32:17;;;;;;;25.48;10.32;;;0.70;99.90;;;;;;4354773;28;659094;-59
2021/01/26 09:35:22;;;;;;;19.47;7.20;;;1.00;99.90;;;;;;4318824;28;659682;-61
2021/01/26 09:38:12;;;;;;;24.90;9.23;;;1.00;99.90;;;;;;4305553;28;658787;-61
2021/01/26 09:41:03;;;;;;;15.30;4.93;;;1.20;99.90;;;;;;4307756;29;659446;-60
2021/01/26 09:43:50;;;;;;;20.63;8.20;;;1.30;99.90;;;;;;4312963;28;659805;-60
2021/01/26 09:46:39;;;;;;;18.03;6.60;;;1.60;99.90;;;;;;4347535;28;659358;-60
2021/01/26 09:49:27;;;;;;;23.63;8.90;;;2.20;99.90;;;;;;4331264;28;658814;-60
2021/01/26 09:52:16;;;;;;;20.47;8.27;;;2.20;99.90;;;;;;4352649;28;658550;-61
2021/01/26 09:55:07;;;;;;;22.40;8.77;;;2.40;99.90;;;;;;4367922;28;659186;-60
2021/01/26 09:57:56;;;;;;;23.30;9.00;;;2.50;99.90;;;;;;4343418;28;659563;-61
2021/01/26 10:00:43;;;;;;;18.93;7.70;;;2.70;99.90;;;;;;4366454;28;659120;-59
2021/01/26 10:03:30;;;;;;;29.87;8.93;;;2.40;97.60;;;;;;4354999;28;658657;-60
2021/01/26 10:06:17;;;;;;;24.73;9.17;;;1.80;99.90;;;;;;4362516;28;660717;-59
2021/01/26 10:09:22;;;;;;;30.73;10.85;;;1.50;99.90;;;;;;4353304;28;659981;-61
2021/01/26 10:12:22;;;;;;;27.07;11.17;;;1.30;99.90;;;;;;4340345;28;660425;-61
2021/01/26 10:15:18;;;;;;;30.77;11.83;;;1.10;99.90;;;;;;4339075;28;659766;-61
2021/01/26 10:18:07;;;;;;;12.50;5.43;;;1.00;99.90;;;;;;4329408;28;661583;-59
2021/01/26 10:20:59;;;;;;;24.65;10.07;;;1.00;99.90;;;;;;4360712;28;658717;-61
2021/01/26 10:23:46;;;;;;;35.33;14.30;;;0.90;99.90;;;;;;4349980;28;660281;-60
2021/01/26 10:26:35;;;;;;;30.60;12.73;;;1.10;99.90;;;;;;4370644;28;659049;-60
2021/01/26 10:29:33;;;;;;;23.97;9.17;;;1.00;99.90;;;;;;4342716;28;661089;-59
2021/01/26 10:32:39;;;;;;;32.70;13.33;;;0.80;99.90;;;;;;4324199;28;659939;-59
2021/01/26 10:35:31;;;;;;;41.03;16.27;;;0.80;99.90;;;;;;4318376;28;660416;-60
2021/01/26 10:38:28;;;;;;;39.70;16.10;;;0.60;99.90;;;;;;4346818;28;659439;-61
2021/01/26 10:41:20;;;;;;;42.90;15.63;;;0.70;99.90;;;;;;4346966;28;659505;-59
2021/01/26 10:44:08;;;;;;;36.17;14.70;;;0.60;99.90;;;;;;4347600;28;661396;-59
2021/01/26 10:46:55;;;;;;;34.63;13.37;;;0.60;99.90;;;;;;4349421;28;661751;-60
2021/01/26 10:49:43;;;;;;;29.60;11.47;;;0.70;99.90;;;;;;4370447;28;660566;-59
2021/01/26 10:52:42;;;;;;;35.73;15.90;;;0.80;99.90;;;;;;4344761;28;660398;-60
2021/01/26 10:55:29;;;;;;;30.10;13.73;;;0.80;99.90;;;;;;4335892;28;659531;-61
2021/01/26 10:58:16;;;;;;;25.48;10.40;;;0.80;99.90;;;;;;4380024;28;659726;-60
2021/01/26 11:01:03;;;;;;;27.67;12.00;;;0.90;99.90;;;;;;4372528;28;660567;-59
2021/01/26 11:03:51;;;;;;;40.07;16.27;;;0.70;99.90;;;;;;4351647;28;659585;-59
2021/01/26 11:06:39;;;;;;;33.97;14.13;;;0.80;99.90;;;;;;4373288;28;660292;-59
2021/01/26 11:09:26;;;;;;;35.50;15.87;;;0.80;99.90;;;;;;4348772;28;660960;-59
2021/01/26 11:12:13;;;;;;;25.60;10.60;;;0.90;99.90;;;;;;4368158;28;660798;-59
2021/01/26 11:15:00;;;;;;;27.53;11.10;;;0.90;99.90;;;;;;4345392;28;660307;-59
2021/01/26 11:17:47;;;;;;;31.23;11.70;;;1.00;99.90;;;;;;4368647;28;661046;-59
2021/01/26 11:20:34;;;;;;;28.57;11.40;;;1.00;99.90;;;;;;4359999;28;661016;-60
2021/01/26 11:23:22;;;;;;;28.17;12.17;;;0.70;99.90;;;;;;4375073;28;659598;-60
2021/01/26 11:26:10;;;;;;;34.17;12.95;;;0.70;99.90;;;;;;4351709;28;659768;-61
2021/01/26 11:28:57;;;;;;;25.70;10.33;;;0.70;99.90;;;;;;4377974;28;660296;-59
2021/01/26 11:31:44;;;;;;;29.80;13.83;;;0.80;99.90;;;;;;4351250;28;660120;-61
2021/01/26 11:34:31;;;;;;;27.97;12.00;;;0.80;99.90;;;;;;4381144;28;661433;-60
2021/01/26 11:37:19;;;;;;;32.83;13.87;;;0.60;99.90;;;;;;4375398;28;659577;-59
2021/01/26 11:40:08;;;;;;;36.00;14.67;;;0.50;99.90;;;;;;4362819;28;661041;-59
2021/01/26 11:42:55;;;;;;;29.77;11.60;;;0.60;99.90;;;;;;4356558;28;660424;-59
2021/01/26 11:45:42;;;;;;;21.70;8.83;;;0.80;99.90;;;;;;4380802;28;660372;-60
2021/01/26 11:48:30;;;;;;;30.77;12.73;;;0.90;99.90;;;;;;4355330;28;658681;-61
2021/01/26 11:51:17;;;;;;;25.57;8.60;;;0.70;99.90;;;;;;4366774;28;660853;-59
2021/01/26 11:54:04;;;;;;;36.70;13.83;;;0.80;99.90;;;;;;4363710;28;659570;-61
2021/01/26 11:56:52;;;;;;;40.60;14.93;;;0.60;99.90;;;;;;4371822;28;661322;-60
2021/01/26 11:59:41;;;;;;;25.20;8.43;;;0.60;99.90;;;;;;4353961;28;659619;-60
2021/01/26 12:02:28;;;;;;;37.07;13.80;;;0.70;99.90;;;;;;4371782;28;659551;-59
2021/01/26 12:05:16;;;;;;;33.40;13.83;;;0.70;99.90;;;;;;4345662;28;659480;-60
2021/01/26 12:08:04;;;;;;;40.87;14.67;;;0.90;99.90;;;;;;4368015;28;659654;-59
2021/01/26 12:10:51;;;;;;;23.67;10.57;;;0.90;99.90;;;;;;4346650;28;661060;-60
2021/01/26 12:13:40;;;;;;;16.33;6.10;;;0.90;99.90;;;;;;4370486;28;660441;-59
2021/01/26 12:16:28;;;;;;;23.00;8.87;;;1.00;99.90;;;;;;4345815;28;659028;-59
2021/01/26 12:19:15;;;;;;;29.60;11.83;;;1.10;99.90;;;;;;4358920;28;658760;-60
2021/01/26 12:22:02;;;;;;;31.23;11.47;;;0.90;99.90;;;;;;4378325;28;660762;-60
2021/01/26 12:24:49;;;;;;;37.27;14.77;;;0.60;99.90;;;;;;4368508;28;659906;-61
2021/01/26 12:27:36;;;;;;;31.70;13.13;;;0.40;99.90;;;;;;4372642;28;659725;-61
2021/01/26 12:30:25;;;;;;;45.13;16.45;;;0.40;99.90;;;;;;4369337;28;661002;-60
2021/01/26 12:33:12;;;;;;;20.00;7.30;;;0.50;99.90;;;;;;4344081;28;660215;-60
2021/01/26 12:35:59;;;;;;;34.77;13.27;;;0.60;99.90;;;;;;4361552;28;658280;-60
2021/01/26 12:38:46;;;;;;;36.30;14.20;;;0.40;99.90;;;;;;4372364;28;660325;-59
2021/01/26 12:41:33;;;;;;;23.80;7.47;;;0.50;99.90;;;;;;4389431;28;660600;-59
2021/01/26 12:44:20;;;;;;;39.27;15.93;;;0.40;99.90;;;;;;4359030;28;658588;-60
2021/01/26 12:47:08;;;;;;;45.67;17.83;;;0.50;99.90;;;;;;4378867;28;662152;-60
2021/01/26 12:49:55;;;;;;;44.60;17.03;;;0.40;99.90;;;;;;4366521;28;659506;-60
2021/01/26 12:52:42;;;;;;;11.93;4.57;;;0.60;99.90;;;;;;4378706;28;660493;-59
2021/01/26 12:55:29;;;;;;;25.67;8.60;;;0.50;99.90;;;;;;4365379;28;658458;-59
2021/01/26 12:58:16;;;;;;;43.00;15.50;;;0.50;99.90;;;;;;4375574;28;660751;-59
2021/01/26 13:01:04;;;;;;;30.63;12.80;;;0.40;99.90;;;;;;4370453;28;659606;-61
2021/01/26 13:03:52;;;;;;;33.70;14.82;;;0.40;99.90;;;;;;4365475;28;659742;-59
2021/01/26 13:06:39;;;;;;;35.83;13.50;;;0.30;99.90;;;;;;4350032;28;659791;-60
2021/01/26 13:09:26;;;;;;;27.23;12.43;;;0.50;99.90;;;;;;4387548;28;661435;-59
2021/01/26 13:12:13;;;;;;;21.15;9.45;;;0.70;99.90;;;;;;4388933;28;660460;-60
2021/01/26 13:15:00;;;;;;;30.03;11.83;;;0.70;99.90;;;;;;4356744;28;659121;-59
2021/01/26 13:17:47;;;;;;;30.03;13.30;;;0.80;99.90;;;;;;4364811;28;661017;-59
2021/01/26 13:20:35;;;;;;;25.77;9.97;;;0.80;99.90;;;;;;4342246;28;659750;-60
2021/01/26 13:23:24;;;;;;;25.90;12.70;;;0.80;99.90;;;;;;4374037;28;660622;-60
2021/01/26 13:26:11;;;;;;;25.87;12.23;;;0.70;99.90;;;;;;4343396;28;662344;-60
2021/01/26 13:28:58;;;;;;;23.57;10.87;;;0.70;99.90;;;;;;4383741;28;660290;-59
2021/01/26 13:31:44;;;;;;;22.00;9.73;;;0.70;99.90;;;;;;4370404;28;659968;-60
2021/01/26 13:34:31;;;;;;;25.37;10.50;;;0.70;99.90;;;;;;4381314;28;660183;-59
2021/01/26 13:37:19;;;;;;;22.93;11.60;;;0.70;99.90;;;;;;4360999;28;659445;-58
2021/01/26 13:40:08;;;;;;;32.87;13.13;;;0.70;99.90;;;;;;4344322;28;661827;-59
2021/01/26 13:42:56;;;;;;;29.73;12.77;;;0.70;99.90;;;;;;4340838;28;660571;-60
2021/01/26 13:45:43;;;;;;;21.03;9.23;;;0.50;99.90;;;;;;4368246;28;660673;-59
2021/01/26 13:48:30;;;;;;;19.70;8.37;;;0.40;99.90;;;;;;4352197;28;658838;-60
2021/01/26 13:51:17;;;;;;;28.03;12.90;;;0.50;99.90;;;;;;4377958;28;659632;-60
2021/01/26 13:54:06;;;;;;;28.70;12.83;;;0.70;99.90;;;;;;4363835;28;659834;-61
2021/01/26 13:56:53;;;;;;;29.07;13.10;;;0.80;99.90;;;;;;4378307;28;661070;-59
2021/01/26 13:59:40;;;;;;;34.37;14.00;;;0.90;99.90;;;;;;4353187;28;659845;-60
2021/01/26 14:02:27;;;;;;;39.33;16.63;;;0.80;99.90;;;;;;4396233;28;660980;-59
2021/01/26 14:05:14;;;;;;;40.03;18.30;;;0.90;99.90;;;;;;4363544;28;660202;-61
2021/01/26 14:08:01;;;;;;;30.93;13.67;;;0.70;99.90;;;;;;4390667;28;660478;-60
2021/01/26 14:10:51;;;;;;;29.00;11.87;;;0.60;99.90;;;;;;4384538;28;659810;-61
2021/01/26 14:13:39;;;;;;;21.87;8.07;;;0.40;99.90;;;;;;4376149;28;660411;-60
2021/01/26 14:16:25;;;;;;;43.63;18.37;;;0.20;99.90;;;;;;4353363;28;659285;-59
2021/01/26 14:19:12;;;;;;;32.57;14.47;;;0.10;99.90;;;;;;4371419;28;660944;-59
2021/01/26 14:22:00;;;;;;;45.17;18.53;;;0.00;99.90;;;;;;4343204;28;660569;-61
2021/01/26 14:24:47;;;;;;;49.70;20.37;;;0.10;99.90;;;;;;4363674;28;661460;-59